createdAt,value
2022-08-17T00:01:01.179Z,999.09
2022-08-17T00:02:01.436Z,999.1
2022-08-17T00:02:58.133Z,999.1
2022-08-17T00:03:59.146Z,999.09
2022-08-17T00:04:58.113Z,999.14
2022-08-17T00:05:58.098Z,999.09
2022-08-17T00:06:58.162Z,999.13
2022-08-17T00:07:58.336Z,999.12
2022-08-17T00:08:58.606Z,999.11
2022-08-17T00:09:59.158Z,999.07
2022-08-17T00:10:59.632Z,999.07
2022-08-17T00:12:42.391Z,999.07
2022-08-17T00:12:58.071Z,999.03
2022-08-17T00:13:59.327Z,999.05
2022-08-17T00:14:58.564Z,999.01
2022-08-17T00:15:57.940Z,998.99
2022-08-17T00:17:01.117Z,998.98
2022-08-17T00:17:58.565Z,998.97
2022-08-17T00:19:08.141Z,998.97
2022-08-17T00:19:58.318Z,998.94
2022-08-17T00:20:58.596Z,998.94
2022-08-17T00:22:33.516Z,998.95
2022-08-17T00:22:58.115Z,998.91
2022-08-17T00:23:58.152Z,998.92
2022-08-17T00:24:58.325Z,998.94
2022-08-17T00:25:58.113Z,998.94
2022-08-17T00:26:58.104Z,998.94
2022-08-17T00:28:02.630Z,998.94
2022-08-17T00:28:58.162Z,998.96
2022-08-17T00:29:58.099Z,998.95
2022-08-17T00:30:58.113Z,998.97
2022-08-17T00:31:58.147Z,998.96
2022-08-17T00:33:10.377Z,998.98
2022-08-17T00:33:58.211Z,999.02
2022-08-17T00:34:58.155Z,999.01
2022-08-17T00:35:58.247Z,999
2022-08-17T00:36:58.107Z,998.99
2022-08-17T00:37:58.083Z,998.97
2022-08-17T00:38:58.214Z,998.97
2022-08-17T00:39:58.150Z,998.95
2022-08-17T00:41:01.334Z,998.95
2022-08-17T00:42:01.202Z,998.95
2022-08-17T00:42:59.550Z,998.98
2022-08-17T00:43:58.547Z,998.99
2022-08-17T00:44:58.315Z,999
2022-08-17T00:45:58.583Z,999
2022-08-17T00:46:58.462Z,999.02
2022-08-17T00:47:58.102Z,998.99
2022-08-17T00:48:58.427Z,999.03
2022-08-17T00:49:58.603Z,998.97
2022-08-17T00:50:58.937Z,998.95
2022-08-17T00:51:58.294Z,998.99
2022-08-17T00:52:58.570Z,998.97
2022-08-17T00:53:58.297Z,998.97
2022-08-17T00:54:58.605Z,998.99
2022-08-17T00:55:58.500Z,998.97
2022-08-17T00:56:58.659Z,998.99
2022-08-17T00:57:59.152Z,999
2022-08-17T00:58:58.673Z,999.06
2022-08-17T01:00:04.625Z,999.03
2022-08-17T01:00:58.477Z,999
2022-08-17T01:01:58.163Z,999
2022-08-17T01:02:58.493Z,998.98
2022-08-17T01:04:02.713Z,999
2022-08-17T01:04:58.553Z,998.97
2022-08-17T01:05:58.138Z,998.97
2022-08-17T01:06:58.099Z,999
2022-08-17T01:07:58.388Z,998.99
2022-08-17T01:09:01.540Z,998.99
2022-08-17T01:09:58.147Z,998.97
2022-08-17T01:11:02.906Z,998.95
2022-08-17T01:11:58.556Z,998.93
2022-08-17T01:12:58.115Z,998.94
2022-08-17T01:13:58.115Z,998.95
2022-08-17T01:14:58.273Z,998.92
2022-08-17T01:15:58.143Z,998.89
2022-08-17T01:16:58.151Z,998.89
2022-08-17T01:17:58.372Z,998.89
2022-08-17T01:18:58.340Z,998.88
2022-08-17T01:19:58.134Z,998.82
2022-08-17T01:20:58.111Z,998.84
2022-08-17T01:21:58.379Z,998.84
2022-08-17T01:22:58.103Z,998.84
2022-08-17T01:23:58.107Z,998.83
2022-08-17T01:24:58.147Z,998.84
2022-08-17T01:25:58.149Z,998.87
2022-08-17T01:27:01.113Z,998.85
2022-08-17T01:27:58.119Z,998.81
2022-08-17T01:28:58.109Z,998.81
2022-08-17T01:29:58.150Z,998.85
2022-08-17T01:31:01.117Z,998.85
2022-08-17T01:31:58.097Z,998.82
2022-08-17T01:32:58.110Z,998.83
2022-08-17T01:33:58.113Z,998.82
2022-08-17T01:34:58.145Z,998.84
2022-08-17T01:35:58.116Z,998.83
2022-08-17T01:36:58.236Z,998.81
2022-08-17T01:37:58.111Z,998.84
2022-08-17T01:38:58.114Z,998.83
2022-08-17T01:39:58.215Z,998.87
2022-08-17T01:41:01.120Z,998.86
2022-08-17T01:41:58.102Z,998.87
2022-08-17T01:42:58.099Z,998.85
2022-08-17T01:43:58.116Z,998.87
2022-08-17T01:44:58.136Z,998.93
2022-08-17T01:46:04.201Z,998.89
2022-08-17T01:46:58.105Z,998.95
2022-08-17T01:47:58.113Z,998.95
2022-08-17T01:48:58.152Z,998.93
2022-08-17T01:49:58.116Z,998.98
2022-08-17T01:50:58.173Z,998.97
2022-08-17T01:51:58.098Z,998.99
2022-08-17T01:52:58.113Z,998.98
2022-08-17T01:53:58.105Z,998.99
2022-08-17T01:54:58.145Z,999.01
2022-08-17T01:55:58.107Z,999
2022-08-17T01:56:58.121Z,998.99
2022-08-17T01:57:59.119Z,998.97
2022-08-17T01:58:58.126Z,999
2022-08-17T01:59:58.119Z,998.98
2022-08-17T02:01:04.252Z,999
2022-08-17T02:01:58.273Z,999
2022-08-17T02:02:58.117Z,999
2022-08-17T02:04:04.116Z,999.03
2022-08-17T02:04:58.107Z,999.01
2022-08-17T02:05:58.105Z,999.05
2022-08-17T02:06:58.105Z,999.03
2022-08-17T02:08:03.110Z,999.05
2022-08-17T02:09:04.121Z,999.05
2022-08-17T02:09:58.112Z,999.04
2022-08-17T02:10:58.224Z,999.05
2022-08-17T02:11:59.122Z,999.04
2022-08-17T02:12:58.127Z,999.04
2022-08-17T02:14:05.122Z,999.03
2022-08-17T02:14:58.109Z,998.99
2022-08-17T02:15:58.105Z,999.01
2022-08-17T02:16:58.107Z,999.04
2022-08-17T02:17:58.099Z,999.04
2022-08-17T02:18:58.117Z,999.02
2022-08-17T02:19:58.116Z,999.06
2022-08-17T02:20:58.120Z,999.05
2022-08-17T02:21:58.083Z,999.03
2022-08-17T02:22:58.202Z,999.06
2022-08-17T02:23:58.085Z,999.06
2022-08-17T02:25:04.108Z,999.04
2022-08-17T02:25:58.168Z,999.07
2022-08-17T02:26:58.169Z,999.07
2022-08-17T02:27:58.338Z,999.02
2022-08-17T02:28:58.330Z,999.02
2022-08-17T02:29:58.113Z,999.06
2022-08-17T02:31:04.247Z,999.06
2022-08-17T02:31:58.323Z,999.07
2022-08-17T02:32:59.203Z,999.07
2022-08-17T02:34:05.524Z,999.06
2022-08-17T02:34:58.261Z,999.04
2022-08-17T02:35:58.101Z,999.04
2022-08-17T02:36:58.223Z,999.08
2022-08-17T02:37:58.479Z,999.07
2022-08-17T02:38:58.839Z,999.07
2022-08-17T02:39:59.144Z,999.05
2022-08-17T02:40:58.111Z,999.03
2022-08-17T02:41:58.135Z,999.06
2022-08-17T02:43:01.121Z,999.05
2022-08-17T02:43:58.208Z,999.04
2022-08-17T02:44:58.147Z,999.04
2022-08-17T02:45:58.113Z,999.07
2022-08-17T02:46:58.099Z,999.08
2022-08-17T02:47:58.108Z,999.13
2022-08-17T02:48:58.096Z,999.11
2022-08-17T02:49:58.112Z,999.08
2022-08-17T02:50:58.111Z,999.08
2022-08-17T02:51:58.119Z,999.09
2022-08-17T02:53:05.373Z,999.1
2022-08-17T02:54:38.909Z,999.05
2022-08-17T02:54:58.118Z,999.1
2022-08-17T02:55:58.124Z,999.09
2022-08-17T02:56:58.131Z,999.08
2022-08-17T02:57:58.116Z,999.09
2022-08-17T02:58:58.126Z,999.05
2022-08-17T02:59:58.104Z,999.04
2022-08-17T03:01:01.106Z,999.01
2022-08-17T03:01:58.175Z,999.01
2022-08-17T03:02:58.134Z,999.01
2022-08-17T03:03:58.176Z,999
2022-08-17T03:04:58.111Z,998.97
2022-08-17T03:05:58.204Z,998.98
2022-08-17T03:06:59.113Z,998.96
2022-08-17T03:07:58.104Z,998.99
2022-08-17T03:08:58.105Z,998.96
2022-08-17T03:09:58.106Z,998.98
2022-08-17T03:10:58.113Z,998.97
2022-08-17T03:11:59.112Z,998.99
2022-08-17T03:12:58.119Z,999.03
2022-08-17T03:13:58.238Z,999.02
2022-08-17T03:14:58.119Z,999.06
2022-08-17T03:15:58.150Z,999.02
2022-08-17T03:16:58.156Z,999
2022-08-17T03:17:58.230Z,998.99
2022-08-17T03:18:58.195Z,998.99
2022-08-17T03:19:58.177Z,998.98
2022-08-17T03:20:58.164Z,998.99
2022-08-17T03:21:58.306Z,998.99
2022-08-17T03:23:04.263Z,998.98
2022-08-17T03:23:58.198Z,998.99
2022-08-17T03:24:59.178Z,999
2022-08-17T03:25:58.430Z,998.96
2022-08-17T03:26:58.641Z,999.01
2022-08-17T03:27:58.262Z,999.02
2022-08-17T03:28:58.270Z,999.03
2022-08-17T03:29:58.567Z,999.02
2022-08-17T03:30:58.939Z,998.98
2022-08-17T03:31:58.134Z,998.99
2022-08-17T03:32:58.559Z,998.98
2022-08-17T03:33:57.820Z,998.96
2022-08-17T03:34:58.334Z,999.02
2022-08-17T03:35:58.419Z,999
2022-08-17T03:36:58.936Z,999.03
2022-08-17T03:38:04.016Z,999.04
2022-08-17T03:38:58.101Z,999.02
2022-08-17T03:39:58.217Z,999
2022-08-17T03:41:02.208Z,999.03
2022-08-17T03:41:58.188Z,999.02
2022-08-17T03:42:58.082Z,999.04
2022-08-17T03:43:58.110Z,999.04
2022-08-17T03:45:01.873Z,999.05
2022-08-17T03:45:58.083Z,999.06
2022-08-17T03:46:58.267Z,999.04
2022-08-17T03:47:58.111Z,999.05
2022-08-17T03:48:58.226Z,999.05
2022-08-17T03:49:58.541Z,999.03
2022-08-17T03:50:58.470Z,998.98
2022-08-17T03:51:58.320Z,998.99
2022-08-17T03:52:58.485Z,999
2022-08-17T03:53:58.148Z,999
2022-08-17T03:54:58.363Z,999.02
2022-08-17T03:55:58.214Z,998.99
2022-08-17T03:56:58.607Z,998.99
2022-08-17T03:57:58.752Z,999.01
2022-08-17T03:58:58.199Z,999.01
2022-08-17T03:59:58.511Z,998.99
2022-08-17T04:00:58.094Z,998.98
2022-08-17T04:01:58.094Z,998.99
2022-08-17T04:02:58.119Z,998.96
2022-08-17T04:03:58.127Z,998.99
2022-08-17T04:04:58.201Z,999
2022-08-17T04:05:58.527Z,999
2022-08-17T04:06:58.122Z,999.03
2022-08-17T04:07:58.121Z,999.01
2022-08-17T04:08:58.355Z,998.97
2022-08-17T04:09:58.638Z,998.94
2022-08-17T04:10:58.085Z,998.92
2022-08-17T04:12:05.347Z,998.91
2022-08-17T04:12:58.528Z,998.88
2022-08-17T04:13:58.120Z,998.85
2022-08-17T04:14:58.131Z,998.91
2022-08-17T04:15:58.420Z,998.88
2022-08-17T04:16:58.712Z,998.89
2022-08-17T04:17:58.260Z,998.95
2022-08-17T04:18:58.309Z,998.89
2022-08-17T04:19:58.437Z,998.9
2022-08-17T04:21:00.465Z,998.92
2022-08-17T04:21:58.283Z,998.89
2022-08-17T04:22:58.200Z,998.91
2022-08-17T04:23:58.083Z,998.94
2022-08-17T04:25:01.342Z,998.94
2022-08-17T04:25:58.341Z,998.98
2022-08-17T04:26:58.228Z,999
2022-08-17T04:27:58.207Z,998.97
2022-08-17T04:28:58.243Z,999.01
2022-08-17T04:29:59.130Z,999.04
2022-08-17T04:30:58.544Z,999.01
2022-08-17T04:31:58.110Z,999.02
2022-08-17T04:33:07.521Z,999.07
2022-08-17T04:33:58.240Z,999.07
2022-08-17T04:34:58.125Z,999.09
2022-08-17T04:35:58.116Z,999.12
2022-08-17T04:36:58.160Z,999.08
2022-08-17T04:37:58.410Z,999.11
2022-08-17T04:39:01.189Z,999.13
2022-08-17T04:40:04.580Z,999.15
2022-08-17T04:40:58.121Z,999.14
2022-08-17T04:41:58.200Z,999.19
2022-08-17T04:43:02.164Z,999.18
2022-08-17T04:43:58.099Z,999.18
2022-08-17T04:44:58.131Z,999.23
2022-08-17T04:45:59.119Z,999.2
2022-08-17T04:46:58.108Z,999.17
2022-08-17T04:47:58.114Z,999.24
2022-08-17T04:48:58.127Z,999.22
2022-08-17T04:49:58.153Z,999.21
2022-08-17T04:50:58.109Z,999.21
2022-08-17T04:52:05.145Z,999.21
2022-08-17T04:52:58.523Z,999.24
2022-08-17T04:53:58.146Z,999.24
2022-08-17T04:54:58.128Z,999.26
2022-08-17T04:55:58.117Z,999.28
2022-08-17T04:56:58.103Z,999.24
2022-08-17T04:57:58.108Z,999.31
2022-08-17T04:58:58.112Z,999.33
2022-08-17T04:59:58.129Z,999.29
2022-08-17T05:00:58.153Z,999.31
2022-08-17T05:01:58.168Z,999.31
2022-08-17T05:02:58.109Z,999.29
2022-08-17T05:03:58.115Z,999.28
2022-08-17T05:04:59.242Z,999.29
2022-08-17T05:05:58.143Z,999.33
2022-08-17T05:06:58.114Z,999.3
2022-08-17T05:07:58.105Z,999.33
2022-08-17T05:08:58.159Z,999.32
2022-08-17T05:09:58.111Z,999.39
2022-08-17T05:10:58.145Z,999.36
2022-08-17T05:11:59.123Z,999.36
2022-08-17T05:12:58.136Z,999.38
2022-08-17T05:13:58.158Z,999.38
2022-08-17T05:14:58.243Z,999.41
2022-08-17T05:15:58.129Z,999.43
2022-08-17T05:16:58.111Z,999.43
2022-08-17T05:17:58.105Z,999.43
2022-08-17T05:18:58.116Z,999.44
2022-08-17T05:19:58.099Z,999.43
2022-08-17T05:20:58.166Z,999.45
2022-08-17T05:21:58.111Z,999.43
2022-08-17T05:22:58.249Z,999.43
2022-08-17T05:24:00.111Z,999.42
2022-08-17T05:24:58.190Z,999.44
2022-08-17T05:25:59.187Z,999.42
2022-08-17T05:27:04.227Z,999.41
2022-08-17T05:27:59.108Z,999.37
2022-08-17T05:29:04.129Z,999.33
2022-08-17T05:29:58.119Z,999.39
2022-08-17T05:30:58.128Z,999.41
2022-08-17T05:31:58.126Z,999.37
2022-08-17T05:32:58.080Z,999.37
2022-08-17T05:33:58.226Z,999.4
2022-08-17T05:34:59.096Z,999.4
2022-08-17T05:35:58.158Z,999.39
2022-08-17T05:36:58.096Z,999.41
2022-08-17T05:37:59.387Z,999.4
2022-08-17T05:38:58.139Z,999.38
2022-08-17T05:39:58.117Z,999.38
2022-08-17T05:40:58.225Z,999.35
2022-08-17T05:41:58.359Z,999.35
2022-08-17T05:42:58.304Z,999.34
2022-08-17T05:43:59.285Z,999.38
2022-08-17T05:44:58.371Z,999.35
2022-08-17T05:45:59.355Z,999.33
2022-08-17T05:46:58.441Z,999.29
2022-08-17T05:47:58.281Z,999.27
2022-08-17T05:48:58.108Z,999.28
2022-08-17T05:49:59.111Z,999.27
2022-08-17T05:50:58.425Z,999.26
2022-08-17T05:51:58.231Z,999.25
2022-08-17T05:52:58.109Z,999.25
2022-08-17T05:53:58.234Z,999.28
2022-08-17T05:54:58.458Z,999.26
2022-08-17T05:55:58.118Z,999.22
2022-08-17T05:56:58.115Z,999.26
2022-08-17T05:58:02.163Z,999.28
2022-08-17T05:58:58.284Z,999.26
2022-08-17T05:59:58.115Z,999.28
2022-08-17T06:00:58.177Z,999.27
2022-08-17T06:01:58.116Z,999.24
2022-08-17T06:02:58.111Z,999.22
2022-08-17T06:04:05.424Z,999.21
2022-08-17T06:04:58.104Z,999.22
2022-08-17T06:05:58.118Z,999.17
2022-08-17T06:06:58.119Z,999.16
2022-08-17T06:07:58.115Z,999.17
2022-08-17T06:08:58.110Z,999.17
2022-08-17T06:09:58.119Z,999.15
2022-08-17T06:10:59.127Z,999.14
2022-08-17T06:12:01.132Z,999.14
2022-08-17T06:12:58.105Z,999.14
2022-08-17T06:13:58.091Z,999.15
2022-08-17T06:14:59.104Z,999.15
2022-08-17T06:15:58.137Z,999.19
2022-08-17T06:16:58.128Z,999.15
2022-08-17T06:17:58.165Z,999.13
2022-08-17T06:18:58.110Z,999.12
2022-08-17T06:19:58.123Z,999.11
2022-08-17T06:20:58.123Z,999.17
2022-08-17T06:21:58.118Z,999.19
2022-08-17T06:22:58.122Z,999.18
2022-08-17T06:23:59.116Z,999.19
2022-08-17T06:24:58.116Z,999.19
2022-08-17T06:25:58.120Z,999.13
2022-08-17T06:26:58.110Z,999.14
2022-08-17T06:27:58.107Z,999.14
2022-08-17T06:28:58.225Z,999.13
2022-08-17T06:29:58.109Z,999.15
2022-08-17T06:31:04.131Z,999.15
2022-08-17T06:31:58.107Z,999.16
2022-08-17T06:32:58.116Z,999.17
2022-08-17T06:33:58.115Z,999.17
2022-08-17T06:34:58.119Z,999.18
2022-08-17T06:36:00.086Z,999.14
2022-08-17T06:37:01.280Z,999.12
2022-08-17T06:37:58.342Z,999.13
2022-08-17T06:38:58.497Z,999.14
2022-08-17T06:39:58.842Z,999.13
2022-08-17T06:40:59.069Z,999.13
2022-08-17T06:41:58.685Z,999.16
2022-08-17T06:43:07.175Z,999.09
2022-08-17T06:43:58.088Z,999.1
2022-08-17T06:44:59.493Z,999.06
2022-08-17T06:45:58.713Z,999.06
2022-08-17T06:46:57.927Z,999.07
2022-08-17T06:47:58.325Z,999.07
2022-08-17T06:48:58.619Z,999.06
2022-08-17T06:49:57.922Z,999.07
2022-08-17T06:50:58.354Z,999.11
2022-08-17T06:51:58.623Z,999.1
2022-08-17T06:52:58.233Z,999.06
2022-08-17T06:53:59.596Z,999.09
2022-08-17T06:54:58.108Z,999.07
2022-08-17T06:55:58.107Z,999.09
2022-08-17T06:56:58.094Z,999.08
2022-08-17T06:57:58.098Z,999.09
2022-08-17T06:58:58.169Z,999.05
2022-08-17T06:59:59.110Z,999.02
2022-08-17T07:01:01.532Z,999.05
2022-08-17T07:01:58.153Z,999.05
2022-08-17T07:02:58.120Z,999.06
2022-08-17T07:03:58.160Z,999.06
2022-08-17T07:04:58.102Z,999.08
2022-08-17T07:05:59.104Z,999.04
2022-08-17T07:06:58.104Z,998.99
2022-08-17T07:07:58.115Z,999.06
2022-08-17T07:08:58.109Z,999.02
2022-08-17T07:09:58.112Z,999.04
2022-08-17T07:10:58.108Z,999.07
2022-08-17T07:11:58.112Z,999.06
2022-08-17T07:12:58.109Z,999.09
2022-08-17T07:13:58.302Z,999.13
2022-08-17T07:14:58.216Z,999.11
2022-08-17T07:16:01.124Z,999.12
2022-08-17T07:16:58.105Z,999.08
2022-08-17T07:17:58.238Z,999.09
2022-08-17T07:18:58.140Z,999.05
2022-08-17T07:19:58.096Z,999.03
2022-08-17T07:20:58.123Z,999.07
2022-08-17T07:21:58.378Z,999.02
2022-08-17T07:23:02.118Z,998.97
2022-08-17T07:23:58.430Z,999.01
2022-08-17T07:24:58.329Z,999.01
2022-08-17T07:25:58.314Z,999.01
2022-08-17T07:26:58.109Z,999.02
2022-08-17T07:27:58.377Z,999.01
2022-08-17T07:28:58.163Z,999
2022-08-17T07:29:58.441Z,999
2022-08-17T07:30:58.190Z,999
2022-08-17T07:31:59.474Z,999
2022-08-17T07:32:58.544Z,999
2022-08-17T07:33:58.183Z,999.03
2022-08-17T07:34:58.499Z,999.04
2022-08-17T07:35:58.787Z,999.04
2022-08-17T07:36:58.299Z,999.03
2022-08-17T07:37:58.103Z,999.08
2022-08-17T07:38:58.102Z,999.05
2022-08-17T07:40:15.702Z,999.06
2022-08-17T07:40:58.310Z,999.06
2022-08-17T07:42:01.704Z,999.04
2022-08-17T07:42:58.125Z,999.06
2022-08-17T07:43:58.283Z,999.05
2022-08-17T07:44:58.232Z,999.06
2022-08-17T07:45:58.132Z,999.03
2022-08-17T07:46:58.176Z,999.01
2022-08-17T07:47:58.318Z,999.06
2022-08-17T07:48:58.373Z,998.98
2022-08-17T07:49:58.122Z,999.03
2022-08-17T07:50:58.103Z,999.01
2022-08-17T07:52:13.474Z,999.01
2022-08-17T07:52:58.105Z,999.01
2022-08-17T07:54:14.333Z,999.02
2022-08-17T07:54:58.133Z,999.04
2022-08-17T07:55:58.117Z,999.05
2022-08-17T07:56:58.119Z,999.08
2022-08-17T07:57:58.123Z,999.07
2022-08-17T07:58:58.123Z,999.08
2022-08-17T07:59:59.251Z,999.1
2022-08-17T08:00:58.110Z,999.1
2022-08-17T08:02:01.492Z,999.11
2022-08-17T08:02:59.124Z,999.08
2022-08-17T08:04:01.101Z,999.11
2022-08-17T08:05:08.704Z,999.08
2022-08-17T08:05:58.116Z,999.1
2022-08-17T08:06:58.282Z,999.11
2022-08-17T08:07:58.125Z,999.13
2022-08-17T08:08:58.106Z,999.15
2022-08-17T08:09:58.169Z,999.12
2022-08-17T08:10:58.112Z,999.13
2022-08-17T08:11:58.101Z,999.14
2022-08-17T08:13:02.123Z,999.11
2022-08-17T08:13:58.128Z,999.06
2022-08-17T08:14:58.108Z,999.05
2022-08-17T08:15:58.123Z,999.05
2022-08-17T08:16:58.109Z,999.09
2022-08-17T08:17:58.109Z,999.08
2022-08-17T08:19:01.144Z,999.09
2022-08-17T08:19:58.142Z,999.11
2022-08-17T08:20:58.209Z,999.13
2022-08-17T08:21:58.101Z,999.11
2022-08-17T08:22:58.094Z,999.09
2022-08-17T08:23:58.132Z,999.07
2022-08-17T08:24:58.100Z,999.09
2022-08-17T08:25:59.125Z,999.05
2022-08-17T08:26:58.137Z,999.12
2022-08-17T08:27:58.106Z,999.18
2022-08-17T08:28:58.145Z,999.12
2022-08-17T08:29:58.083Z,999.18
2022-08-17T08:30:58.211Z,999.19
2022-08-17T08:31:58.221Z,999.2
2022-08-17T08:33:01.129Z,999.19
2022-08-17T08:33:58.100Z,999.23
2022-08-17T08:35:04.209Z,999.23
2022-08-17T08:35:58.126Z,999.23
2022-08-17T08:37:16.125Z,999.24
2022-08-17T08:37:58.239Z,999.21
2022-08-17T08:38:58.207Z,999.21
2022-08-17T08:39:59.517Z,999.19
2022-08-17T08:40:58.109Z,999.18
2022-08-17T08:41:58.482Z,999.17
2022-08-17T08:42:58.541Z,999.19
2022-08-17T08:43:58.682Z,999.18
2022-08-17T08:45:05.545Z,999.14
2022-08-17T08:45:58.232Z,999.14
2022-08-17T08:46:58.691Z,999.09
2022-08-17T08:48:02.413Z,999.11
2022-08-17T08:49:10.337Z,999.06
2022-08-17T08:50:07.397Z,999.05
2022-08-17T08:51:00.742Z,999.05
2022-08-17T08:51:58.311Z,999.07
2022-08-17T08:52:58.825Z,999.04
2022-08-17T08:53:59.664Z,999.05
2022-08-17T08:54:58.158Z,999.07
2022-08-17T08:55:58.264Z,999.05
2022-08-17T08:57:26.593Z,999.08
2022-08-17T08:57:58.531Z,999.03
2022-08-17T08:58:58.309Z,999
2022-08-17T09:00:01.656Z,999
2022-08-17T09:00:58.492Z,999.02
2022-08-17T09:01:58.834Z,999.03
2022-08-17T09:02:58.636Z,999.02
2022-08-17T09:04:21.701Z,999.03
2022-08-17T09:05:14.109Z,999.03
2022-08-17T09:05:58.506Z,999.05
2022-08-17T09:06:58.099Z,999.05
2022-08-17T09:08:01.305Z,999.05
2022-08-17T09:08:58.100Z,999.03
2022-08-17T09:10:01.397Z,999.03
2022-08-17T09:10:58.108Z,999.03
2022-08-17T09:12:06.042Z,999
2022-08-17T09:12:58.109Z,998.98
2022-08-17T09:13:58.098Z,998.97
2022-08-17T09:14:58.218Z,998.95
2022-08-17T09:15:59.150Z,998.96
2022-08-17T09:16:58.116Z,998.93
2022-08-17T09:18:59.463Z,998.89
2022-08-17T09:19:05.449Z,998.94
2022-08-17T09:19:58.107Z,998.88
2022-08-17T09:20:58.109Z,998.93
2022-08-17T09:21:58.127Z,998.95
2022-08-17T09:22:58.193Z,998.89
2022-08-17T09:23:58.108Z,998.9
2022-08-17T09:24:58.123Z,998.9
2022-08-17T09:25:58.107Z,998.88
2022-08-17T09:26:58.113Z,998.83
2022-08-17T09:28:01.141Z,998.83
2022-08-17T09:28:58.096Z,998.83
2022-08-17T09:29:58.118Z,998.81
2022-08-17T09:30:58.120Z,998.81
2022-08-17T09:31:58.115Z,998.8
2022-08-17T09:32:58.117Z,998.85
2022-08-17T09:33:58.118Z,998.82
2022-08-17T09:34:59.118Z,998.79
2022-08-17T09:35:58.112Z,998.76
2022-08-17T09:36:58.240Z,998.81
2022-08-17T09:37:58.100Z,998.8
2022-08-17T09:38:58.123Z,998.75
2022-08-17T09:39:58.163Z,998.76
2022-08-17T09:40:58.110Z,998.73
2022-08-17T09:41:58.109Z,998.68
2022-08-17T09:42:58.106Z,998.73
2022-08-17T09:43:58.123Z,998.78
2022-08-17T09:44:58.114Z,998.78
2022-08-17T09:45:58.112Z,998.72
2022-08-17T09:46:58.117Z,998.72
2022-08-17T09:47:59.138Z,998.76
2022-08-17T09:48:58.109Z,998.72
2022-08-17T09:49:58.107Z,998.72
2022-08-17T09:51:06.737Z,998.73
2022-08-17T09:51:58.101Z,998.72
2022-08-17T09:52:58.213Z,998.67
2022-08-17T09:54:35.160Z,998.69
2022-08-17T09:54:58.649Z,998.67
2022-08-17T09:55:59.532Z,998.63
2022-08-17T09:57:28.389Z,998.67
2022-08-17T09:57:58.134Z,998.67
2022-08-17T09:58:59.315Z,998.65
2022-08-17T09:59:59.766Z,998.63
2022-08-17T10:00:59.897Z,998.67
2022-08-17T10:01:58.142Z,998.6
2022-08-17T10:02:58.568Z,998.58
2022-08-17T10:03:58.077Z,998.62
2022-08-17T10:04:58.341Z,998.6
2022-08-17T10:05:59.494Z,998.61
2022-08-17T10:06:58.887Z,998.62
2022-08-17T10:07:58.114Z,998.6
2022-08-17T10:08:58.165Z,998.56
2022-08-17T10:09:58.122Z,998.59
2022-08-17T10:11:01.215Z,998.55
2022-08-17T10:12:01.602Z,998.54
2022-08-17T10:12:58.119Z,998.59
2022-08-17T10:14:01.089Z,998.58
2022-08-17T10:15:02.299Z,998.57
2022-08-17T10:15:58.104Z,998.56
2022-08-17T10:16:58.217Z,998.58
2022-08-17T10:17:58.115Z,998.52
2022-08-17T10:18:58.109Z,998.49
2022-08-17T10:19:58.222Z,998.47
2022-08-17T10:20:58.291Z,998.48
2022-08-17T10:22:14.788Z,998.48
2022-08-17T10:22:58.108Z,998.54
2022-08-17T10:23:58.121Z,998.57
2022-08-17T10:25:23.354Z,998.54
2022-08-17T10:25:59.128Z,998.55
2022-08-17T10:26:59.113Z,998.51
2022-08-17T10:27:58.110Z,998.57
2022-08-17T10:28:58.102Z,998.48
2022-08-17T10:29:58.107Z,998.6
2022-08-17T10:31:34.050Z,998.61
2022-08-17T10:31:58.227Z,998.56
2022-08-17T10:32:58.100Z,998.54
2022-08-17T10:33:58.099Z,998.57
2022-08-17T10:34:58.091Z,998.55
2022-08-17T10:36:01.111Z,998.52
2022-08-17T10:36:58.260Z,998.54
2022-08-17T10:37:58.111Z,998.55
2022-08-17T10:38:58.217Z,998.52
2022-08-17T10:39:58.555Z,998.58
2022-08-17T10:40:58.547Z,998.53
2022-08-17T10:41:58.207Z,998.52
2022-08-17T10:42:58.514Z,998.59
2022-08-17T10:44:36.900Z,998.56
2022-08-17T10:44:58.147Z,998.56
2022-08-17T10:46:10.778Z,998.55
2022-08-17T10:46:58.383Z,998.56
2022-08-17T10:48:06.006Z,998.49
2022-08-17T10:48:58.315Z,998.55
2022-08-17T10:49:58.546Z,998.54
2022-08-17T10:50:58.264Z,998.56
2022-08-17T10:51:58.112Z,998.54
2022-08-17T10:52:58.091Z,998.55
2022-08-17T10:53:58.321Z,998.5
2022-08-17T10:55:01.277Z,998.54
2022-08-17T10:55:58.105Z,998.57
2022-08-17T10:56:58.167Z,998.56
2022-08-17T10:57:58.104Z,998.59
2022-08-17T10:58:58.203Z,998.55
2022-08-17T10:59:58.107Z,998.55
2022-08-17T11:00:58.163Z,998.57
2022-08-17T11:01:58.256Z,998.59
2022-08-17T11:02:58.117Z,998.59
2022-08-17T11:03:58.144Z,998.62
2022-08-17T11:04:58.123Z,998.65
2022-08-17T11:05:58.105Z,998.67
2022-08-17T11:06:58.119Z,998.6
2022-08-17T11:07:58.104Z,998.68
2022-08-17T11:08:58.128Z,998.65
2022-08-17T11:09:58.111Z,998.66
2022-08-17T11:10:58.118Z,998.67
2022-08-17T11:11:58.111Z,998.69
2022-08-17T11:12:58.105Z,998.73
2022-08-17T11:13:58.142Z,998.78
2022-08-17T11:14:58.120Z,998.77
2022-08-17T11:16:08.467Z,998.8
2022-08-17T11:16:58.101Z,998.76
2022-08-17T11:17:58.105Z,998.82
2022-08-17T11:18:58.172Z,998.78
2022-08-17T11:19:58.130Z,998.81
2022-08-17T11:20:58.105Z,998.81
2022-08-17T11:21:58.116Z,998.81
2022-08-17T11:22:58.122Z,998.82
2022-08-17T11:23:58.136Z,998.84
2022-08-17T11:24:58.182Z,998.83
2022-08-17T11:25:58.121Z,998.81
2022-08-17T11:26:58.134Z,998.83
2022-08-17T11:27:58.113Z,998.86
2022-08-17T11:28:59.123Z,998.83
2022-08-17T11:30:04.127Z,998.86
2022-08-17T11:30:58.111Z,998.8
2022-08-17T11:31:59.106Z,998.82
2022-08-17T11:32:59.115Z,998.82
2022-08-17T11:33:58.142Z,998.78
2022-08-17T11:34:58.118Z,998.81
2022-08-17T11:35:58.114Z,998.82
2022-08-17T11:36:58.333Z,998.82
2022-08-17T11:37:58.238Z,998.86
2022-08-17T11:39:01.181Z,998.85
2022-08-17T11:39:58.096Z,998.91
2022-08-17T11:40:58.113Z,998.94
2022-08-17T11:41:58.130Z,998.96
2022-08-17T11:42:58.081Z,998.97
2022-08-17T11:43:58.245Z,999.02
2022-08-17T11:44:58.526Z,999.02
2022-08-17T11:45:58.275Z,999.04
2022-08-17T11:46:58.313Z,999.05
2022-08-17T11:48:27.605Z,999.07
2022-08-17T11:48:58.311Z,999.03
2022-08-17T11:49:58.174Z,999.02
2022-08-17T11:50:58.420Z,999
2022-08-17T11:51:59.131Z,999.03
2022-08-17T11:52:58.275Z,999.05
2022-08-17T11:54:30.928Z,999.06
2022-08-17T11:55:31.695Z,999.03
2022-08-17T11:55:58.317Z,999.03
2022-08-17T11:56:58.330Z,999.05
2022-08-17T11:57:58.537Z,999.08
2022-08-17T11:58:58.653Z,999.07
2022-08-17T11:59:59.983Z,999.07
2022-08-17T12:00:58.100Z,999.08
2022-08-17T12:01:58.126Z,999.09
2022-08-17T12:02:58.078Z,999.1
2022-08-17T12:03:58.347Z,999.11
2022-08-17T12:04:58.089Z,999.1
2022-08-17T12:05:58.107Z,999.11
2022-08-17T12:06:58.210Z,999.14
2022-08-17T12:07:58.531Z,999.19
2022-08-17T12:08:59.255Z,999.16
2022-08-17T12:09:58.361Z,999.17
2022-08-17T12:10:58.735Z,999.18
2022-08-17T12:12:12.289Z,999.13
2022-08-17T12:12:58.376Z,999.15
2022-08-17T12:13:58.516Z,999.15
2022-08-17T12:15:10.398Z,999.17
2022-08-17T12:15:58.276Z,999.15
2022-08-17T12:16:58.591Z,999.14
2022-08-17T12:17:58.593Z,999.14
2022-08-17T12:18:58.216Z,999.11
2022-08-17T12:19:58.491Z,999.15
2022-08-17T12:20:59.457Z,999.08
2022-08-17T12:21:58.111Z,999.13
2022-08-17T12:22:58.199Z,999.11
2022-08-17T12:23:58.435Z,999.06
2022-08-17T12:24:58.116Z,999.09
2022-08-17T12:25:58.095Z,999.07
2022-08-17T12:26:58.092Z,999.09
2022-08-17T12:28:07.913Z,999.06
2022-08-17T12:29:02.440Z,999.02
2022-08-17T12:29:58.115Z,999.03
2022-08-17T12:30:58.106Z,999.03
2022-08-17T12:31:58.103Z,999.02
2022-08-17T12:32:58.102Z,999.01